Time;durP1;ratioP1;P1;durP2;ratioP2;P2;SDS_P1;SDS_P2;PMS_P1;PMS_P2;Temp;Humidity;BMP_temperature;BMP_pressure;BME280_temperature;BME280_humidity;BME280_pressure;Samples;Min_cycle;Max_cycle;Signal;HPM_P1;HPM_P2
2024/02/11 00:00:38;;;;;;;12.25;6.78;;;;;;;;;;5071061;28;20028;-82
2024/02/11 00:03:04;;;;;;;11.80;8.00;;;;;;;;;;5071144;28;20041;-82
2024/02/11 00:05:31;;;;;;;9.13;5.63;;;;;;;;;;5070818;28;20465;-82
2024/02/11 00:07:57;;;;;;;12.75;7.97;;;;;;;;;;5070597;28;20495;-81
2024/02/11 00:10:23;;;;;;;13.60;10.52;;;;;;;;;;5071056;28;20035;-80
2024/02/11 00:12:49;;;;;;;11.50;7.95;;;;;;;;;;5070472;28;20020;-80
2024/02/11 00:15:15;;;;;;;15.63;11.60;;;;;;;;;;5070762;28;20049;-81
2024/02/11 00:17:46;;;;;;;13.32;9.02;;;;;;;;;;5070981;28;20060;-81
2024/02/11 00:20:15;;;;;;;12.85;8.75;;;;;;;;;;5072031;28;20388;-82
2024/02/11 00:22:42;;;;;;;9.82;6.78;;;;;;;;;;5071105;28;20051;-84
2024/02/11 00:25:09;;;;;;;20.52;14.60;;;;;;;;;;5071024;28;20119;-83
2024/02/11 00:27:37;;;;;;;14.60;10.50;;;;;;;;;;5071034;28;20040;-84
2024/02/11 00:30:04;;;;;;;14.55;9.93;;;;;;;;;;5071068;28;20128;-83
2024/02/11 00:32:30;;;;;;;13.40;8.85;;;;;;;;;;5071626;28;20051;-83
2024/02/11 00:34:58;;;;;;;23.58;14.32;;;;;;;;;;5072705;28;20047;-83
2024/02/11 00:37:24;;;;;;;22.02;13.30;;;;;;;;;;5080441;28;20534;-81
2024/02/11 00:39:50;;;;;;;18.25;12.02;;;;;;;;;;5088659;28;20020;-84
2024/02/11 00:42:19;;;;;;;12.80;8.48;;;;;;;;;;5091322;28;20021;-82
2024/02/11 00:44:45;;;;;;;13.57;9.17;;;;;;;;;;5076009;28;20028;-81
2024/02/11 00:47:11;;;;;;;31.88;18.48;;;;;;;;;;5070557;28;20283;-82
2024/02/11 00:49:37;;;;;;;22.23;13.65;;;;;;;;;;5070577;28;20461;-82
2024/02/11 00:52:03;;;;;;;32.17;19.17;;;;;;;;;;5070404;28;20055;-84
2024/02/11 00:54:37;;;;;;;19.27;14.13;;;;;;;;;;5070710;28;20048;-83
2024/02/11 00:57:03;;;;;;;17.80;12.05;;;;;;;;;;5070235;28;20028;-83
2024/02/11 00:59:29;;;;;;;16.70;12.00;;;;;;;;;;5070427;28;20025;-82
2024/02/11 01:01:55;;;;;;;15.73;12.60;;;;;;;;;;5070143;28;20031;-82
2024/02/11 01:04:21;;;;;;;15.48;11.15;;;;;;;;;;5070440;28;20027;-83
2024/02/11 01:06:47;;;;;;;16.08;11.50;;;;;;;;;;5073662;28;20044;-82
2024/02/11 01:09:13;;;;;;;11.65;8.30;;;;;;;;;;5074250;28;20420;-83
2024/02/11 01:11:40;;;;;;;12.57;9.32;;;;;;;;;;5074205;28;20020;-82
2024/02/11 01:14:07;;;;;;;11.30;8.05;;;;;;;;;;5074744;28;20199;-82
2024/02/11 01:16:33;;;;;;;8.40;5.82;;;;;;;;;;5074067;28;20071;-82
2024/02/11 01:19:00;;;;;;;14.93;10.65;;;;;;;;;;5073512;28;20059;-83
2024/02/11 01:21:26;;;;;;;11.10;7.93;;;;;;;;;;5074206;28;20471;-83
2024/02/11 01:23:52;;;;;;;11.23;8.73;;;;;;;;;;5073627;28;20082;-82
2024/02/11 01:26:18;;;;;;;13.02;9.93;;;;;;;;;;5073524;28;20032;-82
2024/02/11 01:28:44;;;;;;;11.88;9.05;;;;;;;;;;5074936;28;20032;-81
2024/02/11 01:31:11;;;;;;;14.43;11.32;;;;;;;;;;5073421;28;20021;-82
2024/02/11 01:33:37;;;;;;;11.70;8.98;;;;;;;;;;5073557;28;20025;-82
2024/02/11 01:36:03;;;;;;;10.07;7.47;;;;;;;;;;5073456;28;20044;-81
2024/02/11 01:38:29;;;;;;;13.48;10.05;;;;;;;;;;5073652;28;20032;-82
2024/02/11 01:40:55;;;;;;;13.90;9.18;;;;;;;;;;5073519;28;20543;-83
2024/02/11 01:43:21;;;;;;;16.52;13.80;;;;;;;;;;5073758;28;20016;-83
2024/02/11 01:45:48;;;;;;;13.85;11.48;;;;;;;;;;5073563;28;20029;-81
2024/02/11 01:48:14;;;;;;;13.20;9.65;;;;;;;;;;5073569;28;20040;-81
2024/02/11 01:50:40;;;;;;;18.80;13.57;;;;;;;;;;5073451;28;20361;-81
2024/02/11 01:53:08;;;;;;;15.77;11.48;;;;;;;;;;5073209;28;20384;-81
2024/02/11 01:55:34;;;;;;;17.17;12.45;;;;;;;;;;5074798;28;20028;-80
2024/02/11 01:58:02;;;;;;;22.27;16.35;;;;;;;;;;5073149;28;20444;-83
2024/02/11 02:00:28;;;;;;;20.02;16.58;;;;;;;;;;5073387;28;20453;-82
2024/02/11 02:02:55;;;;;;;15.80;13.43;;;;;;;;;;5073149;28;20039;-83
2024/02/11 02:05:22;;;;;;;17.35;13.55;;;;;;;;;;5073375;28;20357;-83
2024/02/11 02:07:48;;;;;;;19.33;14.02;;;;;;;;;;5073433;28;20059;-82
2024/02/11 02:10:14;;;;;;;16.90;13.80;;;;;;;;;;5072966;28;20024;-83
2024/02/11 02:12:42;;;;;;;20.83;17.38;;;;;;;;;;5073460;28;20020;-84
2024/02/11 02:15:09;;;;;;;13.40;10.93;;;;;;;;;;5072924;28;20396;-83
2024/02/11 02:17:35;;;;;;;13.68;10.27;;;;;;;;;;5072845;28;20025;-83
2024/02/11 02:20:02;;;;;;;20.83;17.60;;;;;;;;;;5073577;28;20073;-83
2024/02/11 02:22:28;;;;;;;13.13;10.93;;;;;;;;;;5073131;28;20017;-82
2024/02/11 02:24:55;;;;;;;19.00;13.57;;;;;;;;;;5072837;28;20032;-82
2024/02/11 02:27:21;;;;;;;13.93;9.68;;;;;;;;;;5073218;28;20182;-84
2024/02/11 02:29:47;;;;;;;10.77;7.93;;;;;;;;;;5073613;28;20032;-83
2024/02/11 02:32:13;;;;;;;16.90;13.90;;;;;;;;;;5074579;28;20085;-82
2024/02/11 02:34:40;;;;;;;18.75;13.43;;;;;;;;;;5077350;28;20028;-79
2024/02/11 02:37:06;;;;;;;14.63;10.77;;;;;;;;;;5075626;28;20020;-79
2024/02/11 02:39:32;;;;;;;19.77;15.63;;;;;;;;;;5074097;28;20016;-80
2024/02/11 02:41:59;;;;;;;17.55;12.30;;;;;;;;;;5074676;28;20483;-80
2024/02/11 02:44:25;;;;;;;18.85;14.98;;;;;;;;;;5072506;28;20457;-81
2024/02/11 02:46:52;;;;;;;18.48;15.07;;;;;;;;;;5072350;28;20495;-81
2024/02/11 02:49:18;;;;;;;21.67;18.27;;;;;;;;;;5073750;28;20024;-81
2024/02/11 02:51:44;;;;;;;19.23;16.05;;;;;;;;;;5072270;28;20028;-81
2024/02/11 02:54:12;;;;;;;17.52;13.30;;;;;;;;;;5072014;28;20460;-80
2024/02/11 02:56:38;;;;;;;22.95;15.27;;;;;;;;;;5072193;28;20020;-80
2024/02/11 02:59:05;;;;;;;15.68;12.25;;;;;;;;;;5071943;28;20032;-81
2024/02/11 03:01:32;;;;;;;12.63;9.65;;;;;;;;;;5072063;28;20111;-80
2024/02/11 03:04:02;;;;;;;15.95;11.80;;;;;;;;;;5071690;28;20016;-80
2024/02/11 03:06:33;;;;;;;20.25;15.65;;;;;;;;;;5071861;28;20064;-81
2024/02/11 03:09:01;;;;;;;15.75;13.13;;;;;;;;;;5072934;28;20083;-80
2024/02/11 03:11:27;;;;;;;21.80;17.50;;;;;;;;;;5073253;28;20024;-81
2024/02/11 03:13:53;;;;;;;19.95;15.18;;;;;;;;;;5071626;28;20107;-81
2024/02/11 03:16:19;;;;;;;22.73;18.10;;;;;;;;;;5071766;28;20016;-82
2024/02/11 03:18:45;;;;;;;17.45;14.25;;;;;;;;;;5071851;28;20032;-80
2024/02/11 03:21:15;;;;;;;16.40;12.70;;;;;;;;;;5071527;28;20115;-79
2024/02/11 03:23:44;;;;;;;25.08;19.88;;;;;;;;;;5071614;28;20570;-80
2024/02/11 03:26:11;;;;;;;23.00;17.50;;;;;;;;;;5072461;28;20067;-81
2024/02/11 03:28:41;;;;;;;21.55;16.52;;;;;;;;;;5070771;28;20091;-81
2024/02/11 03:31:07;;;;;;;19.15;14.20;;;;;;;;;;5071427;28;20031;-82
2024/02/11 03:33:34;;;;;;;12.98;10.70;;;;;;;;;;5071718;28;20028;-83
2024/02/11 03:36:00;;;;;;;19.80;16.13;;;;;;;;;;5071572;28;20504;-83
2024/02/11 03:38:26;;;;;;;22.50;17.88;;;;;;;;;;5071760;28;20024;-83
2024/02/11 03:40:52;;;;;;;21.63;17.30;;;;;;;;;;5071600;28;20464;-84
2024/02/11 03:43:19;;;;;;;19.33;14.57;;;;;;;;;;5072860;28;20025;-84
2024/02/11 03:45:46;;;;;;;19.58;15.10;;;;;;;;;;5071278;28;20119;-84
2024/02/11 03:48:13;;;;;;;15.02;11.02;;;;;;;;;;5071084;28;20033;-85
2024/02/11 03:50:39;;;;;;;13.68;9.75;;;;;;;;;;5071504;28;20070;-81
2024/02/11 03:53:06;;;;;;;20.88;16.45;;;;;;;;;;5071372;28;20020;-83
2024/02/11 03:55:32;;;;;;;19.25;15.10;;;;;;;;;;5071491;28;20479;-83
2024/02/11 03:58:02;;;;;;;26.33;19.20;;;;;;;;;;5070659;28;20024;-80
2024/02/11 04:00:29;;;;;;;21.80;17.67;;;;;;;;;;5072405;28;20097;-81
2024/02/11 04:02:57;;;;;;;23.48;18.52;;;;;;;;;;5071024;28;20021;-80
2024/02/11 04:05:26;;;;;;;18.08;14.55;;;;;;;;;;5070969;28;20027;-80
2024/02/11 04:07:53;;;;;;;16.35;13.45;;;;;;;;;;5072040;28;20376;-79
2024/02/11 04:10:22;;;;;;;21.08;16.90;;;;;;;;;;5072041;28;20017;-80
2024/02/11 04:12:48;;;;;;;23.45;17.13;;;;;;;;;;5071023;28;20024;-79
2024/02/11 04:15:19;;;;;;;24.70;17.63;;;;;;;;;;5070484;28;20059;-79
2024/02/11 04:17:48;;;;;;;21.55;16.60;;;;;;;;;;5070911;28;20032;-79
2024/02/11 04:20:15;;;;;;;25.73;18.13;;;;;;;;;;5070673;28;20024;-80
2024/02/11 04:22:45;;;;;;;27.83;22.58;;;;;;;;;;5070975;28;20115;-79
2024/02/11 04:25:12;;;;;;;15.95;12.43;;;;;;;;;;5070673;28;20064;-82
2024/02/11 04:27:41;;;;;;;22.20;17.30;;;;;;;;;;5070744;28;20024;-81
2024/02/11 04:30:14;;;;;;;23.88;18.27;;;;;;;;;;5070566;28;20365;-82
2024/02/11 04:32:43;;;;;;;23.58;18.42;;;;;;;;;;5070809;28;20082;-83
2024/02/11 04:35:13;;;;;;;24.95;19.52;;;;;;;;;;5070341;28;20028;-79
2024/02/11 04:37:46;;;;;;;22.95;19.60;;;;;;;;;;5070557;28;20560;-79
2024/02/11 04:40:12;;;;;;;25.80;21.50;;;;;;;;;;5071380;28;20056;-81
2024/02/11 04:42:46;;;;;;;18.98;14.18;;;;;;;;;;5074539;28;20083;-80
2024/02/11 04:45:15;;;;;;;22.20;16.50;;;;;;;;;;5074686;28;20035;-79
2024/02/11 04:47:48;;;;;;;24.90;19.52;;;;;;;;;;5075883;28;20025;-80
2024/02/11 04:50:16;;;;;;;20.10;14.50;;;;;;;;;;5082782;28;20024;-81
2024/02/11 04:52:54;;;;;;;28.25;22.35;;;;;;;;;;5098000;28;20013;-81
2024/02/11 04:55:20;;;;;;;13.95;11.27;;;;;;;;;;5091092;28;20399;-84
2024/02/11 04:57:46;;;;;;;20.58;15.68;;;;;;;;;;5075749;28;20021;-85
2024/02/11 05:00:23;;;;;;;26.70;20.73;;;;;;;;;;5074697;28;20021;-86
2024/02/11 05:02:58;;;;;;;20.13;16.73;;;;;;;;;;5074918;28;20051;-84
2024/02/11 05:05:31;;;;;;;24.00;19.65;;;;;;;;;;5074486;28;20086;-85
2024/02/11 05:08:02;;;;;;;24.45;17.40;;;;;;;;;;5074600;28;20025;-82
2024/02/11 05:10:34;;;;;;;26.98;21.70;;;;;;;;;;5074136;28;20077;-83
2024/02/11 05:13:04;;;;;;;24.95;20.20;;;;;;;;;;5074264;28;20029;-80
2024/02/11 05:15:30;;;;;;;;;;;;;;;;;;5074243;28;20058;-81
2024/02/11 05:17:56;;;;;;;23.23;17.38;;;;;;;;;;5075192;28;19908;-81
2024/02/11 05:20:26;;;;;;;21.17;16.75;;;;;;;;;;5073697;28;20028;-82
2024/02/11 05:22:55;;;;;;;26.15;20.77;;;;;;;;;;5074133;28;20020;-83
2024/02/11 05:25:21;;;;;;;27.65;21.15;;;;;;;;;;5073642;28;20452;-82
2024/02/11 05:28:02;;;;;;;30.52;22.30;;;;;;;;;;5073948;28;20043;-82
2024/02/11 05:30:29;;;;;;;23.38;17.67;;;;;;;;;;5075300;28;20021;-82
2024/02/11 05:32:56;;;;;;;31.77;24.67;;;;;;;;;;5073961;28;20028;-81
2024/02/11 05:35:23;;;;;;;25.52;20.85;;;;;;;;;;5073722;28;20028;-82
2024/02/11 05:37:57;;;;;;;18.40;14.25;;;;;;;;;;5073521;28;20088;-82
2024/02/11 05:40:23;;;;;;;25.77;21.13;;;;;;;;;;5073182;28;20050;-82
2024/02/11 05:42:49;;;;;;;27.33;21.98;;;;;;;;;;5073428;28;20024;-82
2024/02/11 05:45:16;;;;;;;31.67;22.85;;;;;;;;;;5073067;28;20028;-83
2024/02/11 05:47:42;;;;;;;29.75;23.35;;;;;;;;;;5074693;28;20442;-82
2024/02/11 05:50:09;;;;;;;29.58;20.60;;;;;;;;;;5073311;28;20027;-81
2024/02/11 05:52:38;;;;;;;33.53;27.15;;;;;;;;;;5072536;28;20032;-82
2024/02/11 05:55:09;;;;;;;24.67;18.38;;;;;;;;;;5073140;28;20074;-82
2024/02/11 05:57:35;;;;;;;;;;;;;;;;;;5073557;28;20471;-82
2024/02/11 06:00:01;;;;;;;28.73;22.85;;;;;;;;;;5073058;28;19977;-83
2024/02/11 06:02:27;;;;;;;23.35;17.90;;;;;;;;;;5072881;28;20033;-81
2024/02/11 06:04:53;;;;;;;29.55;25.17;;;;;;;;;;5073115;28;20111;-82
2024/02/11 06:07:19;;;;;;;34.55;26.92;;;;;;;;;;5072719;28;20398;-82
2024/02/11 06:09:46;;;;;;;33.15;25.52;;;;;;;;;;5073121;28;20067;-80
2024/02/11 06:12:12;;;;;;;33.03;26.83;;;;;;;;;;5074160;28;20024;-81
2024/02/11 06:14:39;;;;;;;28.67;22.02;;;;;;;;;;5072746;28;20503;-80
2024/02/11 06:17:06;;;;;;;33.05;25.25;;;;;;;;;;5072671;28;20036;-80
2024/02/11 06:19:33;;;;;;;34.22;26.42;;;;;;;;;;5072753;28;20091;-81
2024/02/11 06:22:01;;;;;;;31.15;23.77;;;;;;;;;;5072661;28;20032;-80
2024/02/11 06:24:27;;;;;;;23.55;18.17;;;;;;;;;;5073775;28;20020;-80
2024/02/11 06:26:54;;;;;;;30.75;25.00;;;;;;;;;;5073773;28;20028;-81
2024/02/11 06:29:20;;;;;;;25.38;18.98;;;;;;;;;;5073887;28;20052;-81
2024/02/11 06:31:50;;;;;;;29.90;23.40;;;;;;;;;;5072715;28;20017;-82
2024/02/11 06:34:17;;;;;;;36.65;26.95;;;;;;;;;;5072565;28;20029;-80
2024/02/11 06:36:43;;;;;;;34.75;23.50;;;;;;;;;;5072751;28;20522;-81
2024/02/11 06:39:10;;;;;;;26.10;19.00;;;;;;;;;;5072298;28;20028;-79
2024/02/11 06:41:37;;;;;;;28.27;22.10;;;;;;;;;;5072214;28;20021;-80
2024/02/11 06:44:06;;;;;;;32.72;22.52;;;;;;;;;;5073772;28;20024;-81
2024/02/11 06:46:32;;;;;;;21.40;15.98;;;;;;;;;;5072275;28;20029;-82
2024/02/11 06:49:00;;;;;;;15.10;11.25;;;;;;;;;;5072480;28;20028;-81
2024/02/11 06:51:29;;;;;;;12.85;9.65;;;;;;;;;;5071967;28;20028;-81
2024/02/11 06:53:55;;;;;;;14.18;10.30;;;;;;;;;;5072624;28;20021;-81
2024/02/11 06:56:23;;;;;;;15.27;9.70;;;;;;;;;;5072082;28;20028;-82
2024/02/11 06:58:49;;;;;;;17.35;11.38;;;;;;;;;;5073042;28;20062;-82
2024/02/11 07:01:18;;;;;;;19.20;12.35;;;;;;;;;;5079337;28;20035;-80
2024/02/11 07:03:46;;;;;;;16.30;10.93;;;;;;;;;;5090773;28;20028;-80
2024/02/11 07:06:13;;;;;;;18.75;12.70;;;;;;;;;;5089050;28;20032;-80
2024/02/11 07:08:40;;;;;;;18.83;12.70;;;;;;;;;;5080027;28;20024;-82
2024/02/11 07:11:08;;;;;;;22.10;13.60;;;;;;;;;;5073174;28;20016;-82
2024/02/11 07:13:34;;;;;;;24.70;15.18;;;;;;;;;;5072145;28;20016;-82
2024/02/11 07:16:00;;;;;;;24.90;15.90;;;;;;;;;;5071822;28;20109;-82
2024/02/11 07:18:27;;;;;;;29.88;20.30;;;;;;;;;;5071752;28;20016;-82
2024/02/11 07:20:53;;;;;;;30.85;19.67;;;;;;;;;;5071915;28;20059;-83
2024/02/11 07:23:20;;;;;;;22.73;15.05;;;;;;;;;;5072765;28;20020;-82
2024/02/11 07:25:47;;;;;;;33.28;20.20;;;;;;;;;;5071120;28;20036;-82
2024/02/11 07:28:13;;;;;;;33.88;19.92;;;;;;;;;;5071272;28;20023;-81
2024/02/11 07:30:42;;;;;;;26.95;15.60;;;;;;;;;;5071425;28;20472;-77
2024/02/11 07:33:08;;;;;;;23.23;14.55;;;;;;;;;;5071452;28;20425;-77
2024/02/11 07:35:34;;;;;;;23.23;14.40;;;;;;;;;;5071124;28;20468;-77
2024/02/11 07:38:02;;;;;;;24.90;14.70;;;;;;;;;;5071302;28;20025;-78
2024/02/11 07:40:31;;;;;;;23.08;13.65;;;;;;;;;;5072157;28;20423;-78
2024/02/11 07:42:57;;;;;;;22.00;12.20;;;;;;;;;;5071330;28;20024;-78
2024/02/11 07:45:23;;;;;;;20.20;12.52;;;;;;;;;;5070931;28;20050;-77
2024/02/11 07:47:50;;;;;;;25.00;14.75;;;;;;;;;;5071210;28;20028;-77
2024/02/11 07:50:17;;;;;;;26.83;13.75;;;;;;;;;;5070948;28;20017;-77
2024/02/11 07:52:43;;;;;;;23.58;12.07;;;;;;;;;;5072413;28;20017;-77
2024/02/11 07:55:12;;;;;;;21.55;12.05;;;;;;;;;;5072312;28;20020;-76
2024/02/11 07:57:38;;;;;;;19.42;12.02;;;;;;;;;;5072416;28;20013;-78
2024/02/11 08:00:07;;;;;;;24.05;13.68;;;;;;;;;;5072614;28;20376;-78
2024/02/11 08:02:33;;;;;;;22.92;13.65;;;;;;;;;;5070876;28;20040;-77
2024/02/11 08:05:00;;;;;;;19.60;11.75;;;;;;;;;;5072190;28;20074;-78
2024/02/11 08:07:26;;;;;;;25.70;13.20;;;;;;;;;;5070305;28;20032;-77
2024/02/11 08:09:53;;;;;;;21.05;12.07;;;;;;;;;;5071856;28;20016;-78
2024/02/11 08:12:19;;;;;;;33.38;17.27;;;;;;;;;;5070713;28;20017;-81
2024/02/11 08:14:45;;;;;;;27.70;14.82;;;;;;;;;;5071870;28;20067;-82
2024/02/11 08:17:12;;;;;;;33.22;16.27;;;;;;;;;;5070629;28;20033;-83
2024/02/11 08:19:39;;;;;;;33.10;14.35;;;;;;;;;;5070930;28;20028;-82
2024/02/11 08:22:06;;;;;;;31.83;15.23;;;;;;;;;;5070697;28;20658;-83
2024/02/11 08:24:33;;;;;;;31.52;13.95;;;;;;;;;;5070558;28;20029;-82
2024/02/11 08:26:59;;;;;;;30.40;13.57;;;;;;;;;;5070460;28;20036;-82
2024/02/11 08:29:25;;;;;;;28.38;13.20;;;;;;;;;;5070484;28;20028;-82
2024/02/11 08:31:51;;;;;;;24.35;12.63;;;;;;;;;;5070413;28;20388;-83
2024/02/11 08:34:19;;;;;;;32.63;13.93;;;;;;;;;;5071523;28;20025;-83
2024/02/11 08:36:45;;;;;;;28.05;13.13;;;;;;;;;;5070491;28;20032;-83
2024/02/11 08:39:11;;;;;;;25.90;11.73;;;;;;;;;;5071853;28;20070;-83
2024/02/11 08:41:37;;;;;;;26.35;12.20;;;;;;;;;;5070415;28;20017;-82
2024/02/11 08:44:05;;;;;;;25.13;11.45;;;;;;;;;;5071543;28;20078;-83
2024/02/11 08:46:31;;;;;;;26.95;13.57;;;;;;;;;;5070196;28;20028;-82
2024/02/11 08:48:57;;;;;;;29.08;12.25;;;;;;;;;;5070548;28;20532;-82
2024/02/11 08:51:23;;;;;;;27.58;13.23;;;;;;;;;;5070551;28;20371;-83
2024/02/11 08:53:50;;;;;;;28.40;12.55;;;;;;;;;;5070653;28;20027;-84
2024/02/11 08:56:20;;;;;;;28.58;14.30;;;;;;;;;;5070118;28;20028;-84
2024/02/11 08:58:46;;;;;;;33.40;13.73;;;;;;;;;;5070591;28;20059;-83
2024/02/11 09:01:13;;;;;;;28.98;14.07;;;;;;;;;;5070538;28;20444;-84
2024/02/11 09:03:39;;;;;;;29.88;13.48;;;;;;;;;;5070696;28;20472;-84
2024/02/11 09:06:05;;;;;;;32.97;14.30;;;;;;;;;;5070575;28;20396;-83
2024/02/11 09:08:32;;;;;;;28.85;14.27;;;;;;;;;;5071548;28;20086;-83
2024/02/11 09:11:06;;;;;;;30.33;14.32;;;;;;;;;;5070515;28;20119;-84
2024/02/11 09:13:35;;;;;;;32.40;16.02;;;;;;;;;;5071301;28;20020;-84
2024/02/11 09:16:01;;;;;;;28.95;13.55;;;;;;;;;;5076782;28;20052;-82
2024/02/11 09:18:28;;;;;;;33.20;14.18;;;;;;;;;;5087249;28;20103;-82
2024/02/11 09:20:55;;;;;;;31.15;15.43;;;;;;;;;;5082768;28;20028;-81
2024/02/11 09:23:21;;;;;;;17.92;8.95;;;;;;;;;;5081383;28;20372;-83
2024/02/11 09:25:47;;;;;;;33.47;17.70;;;;;;;;;;5072223;28;20028;-83
2024/02/11 09:28:13;;;;;;;31.77;15.80;;;;;;;;;;5075944;28;20121;-84
2024/02/11 09:30:42;;;;;;;35.97;19.73;;;;;;;;;;5077076;28;20021;-83
2024/02/11 09:33:09;;;;;;;33.65;17.80;;;;;;;;;;5076696;28;20025;-83
2024/02/11 09:35:35;;;;;;;31.10;18.52;;;;;;;;;;5076527;28;20143;-83
2024/02/11 09:38:01;;;;;;;32.38;17.58;;;;;;;;;;5076773;28;20028;-84
2024/02/11 09:40:27;;;;;;;28.00;14.90;;;;;;;;;;5076874;28;20032;-83
2024/02/11 09:42:57;;;;;;;27.52;15.38;;;;;;;;;;5076539;28;20127;-83
2024/02/11 09:45:25;;;;;;;31.48;16.65;;;;;;;;;;5076555;28;20032;-85
2024/02/11 09:47:52;;;;;;;39.65;19.77;;;;;;;;;;5076595;28;20468;-83
2024/02/11 09:50:20;;;;;;;37.92;21.05;;;;;;;;;;5076313;28;20087;-83
2024/02/11 09:52:47;;;;;;;34.80;17.17;;;;;;;;;;5078322;28;20427;-83
2024/02/11 09:55:15;;;;;;;34.67;16.67;;;;;;;;;;5076567;28;20026;-82
2024/02/11 09:57:42;;;;;;;30.95;17.75;;;;;;;;;;5076188;28;20024;-84
2024/02/11 10:00:08;;;;;;;29.98;17.00;;;;;;;;;;5076436;28;20482;-83
2024/02/11 10:02:36;;;;;;;30.20;15.55;;;;;;;;;;5076870;28;20099;-83
2024/02/11 10:05:05;;;;;;;27.45;14.68;;;;;;;;;;5075883;28;20020;-84
2024/02/11 10:07:34;;;;;;;30.43;17.40;;;;;;;;;;5077111;28;20025;-84
2024/02/11 10:10:02;;;;;;;36.10;18.38;;;;;;;;;;5077098;28;20032;-84
2024/02/11 10:12:30;;;;;;;28.85;14.50;;;;;;;;;;5079255;28;20046;-84
2024/02/11 10:14:59;;;;;;;28.83;15.98;;;;;;;;;;5076186;28;20060;-83
2024/02/11 10:17:25;;;;;;;33.33;16.00;;;;;;;;;;5076482;28;20479;-83
2024/02/11 10:19:52;;;;;;;26.85;13.43;;;;;;;;;;5077078;28;20027;-84
2024/02/11 10:22:19;;;;;;;28.60;16.63;;;;;;;;;;5076800;28;20028;-84
2024/02/11 10:24:47;;;;;;;33.88;18.08;;;;;;;;;;5076879;28;20070;-84
2024/02/11 10:27:14;;;;;;;37.80;17.70;;;;;;;;;;5076958;28;20058;-84
2024/02/11 10:29:42;;;;;;;31.55;18.05;;;;;;;;;;5078258;28;20080;-84
2024/02/11 10:32:12;;;;;;;31.60;18.85;;;;;;;;;;5076644;28;20028;-84
2024/02/11 10:34:39;;;;;;;24.60;15.73;;;;;;;;;;5076688;28;20052;-84
2024/02/11 10:37:05;;;;;;;37.10;18.50;;;;;;;;;;5076654;28;20456;-84
2024/02/11 10:39:33;;;;;;;30.70;17.38;;;;;;;;;;5077430;28;20020;-83
2024/02/11 10:42:00;;;;;;;39.75;20.70;;;;;;;;;;5076572;28;20457;-83
2024/02/11 10:44:27;;;;;;;29.67;17.73;;;;;;;;;;5076795;28;20088;-84
2024/02/11 10:46:55;;;;;;;38.05;20.48;;;;;;;;;;5077843;28;20029;-83
2024/02/11 10:49:21;;;;;;;32.90;18.05;;;;;;;;;;5076784;28;20119;-85
2024/02/11 10:51:49;;;;;;;41.05;20.95;;;;;;;;;;5076284;28;20024;-85
2024/02/11 10:54:15;;;;;;;41.95;20.75;;;;;;;;;;5076457;28;20028;-84
2024/02/11 10:56:43;;;;;;;34.40;18.70;;;;;;;;;;5075732;28;20086;-84
2024/02/11 10:59:10;;;;;;;40.78;19.70;;;;;;;;;;5076216;28;20078;-83
2024/02/11 11:01:37;;;;;;;40.80;19.80;;;;;;;;;;5075813;28;20047;-84
2024/02/11 11:04:04;;;;;;;34.45;21.30;;;;;;;;;;5076580;28;20032;-84
2024/02/11 11:06:31;;;;;;;42.42;20.90;;;;;;;;;;5080194;28;20369;-85
2024/02/11 11:08:58;;;;;;;33.70;21.13;;;;;;;;;;5078152;28;20468;-84
2024/02/11 11:11:27;;;;;;;38.65;22.13;;;;;;;;;;5078717;28;20028;-84
2024/02/11 11:13:57;;;;;;;36.80;19.15;;;;;;;;;;5076739;28;20029;-85
2024/02/11 11:16:31;;;;;;;36.28;19.13;;;;;;;;;;5078005;28;20476;-83
2024/02/11 11:19:03;;;;;;;33.22;17.38;;;;;;;;;;5075062;28;20029;-81
2024/02/11 11:21:29;;;;;;;31.75;15.70;;;;;;;;;;5074723;28;20031;-82
2024/02/11 11:23:59;;;;;;;25.67;14.45;;;;;;;;;;5075674;28;20428;-81
2024/02/11 11:26:28;;;;;;;34.05;16.45;;;;;;;;;;5075565;28;20178;-80
2024/02/11 11:29:02;;;;;;;31.98;15.02;;;;;;;;;;5074992;28;20120;-80
2024/02/11 11:31:31;;;;;;;26.75;13.27;;;;;;;;;;5074357;28;20024;-79
2024/02/11 11:33:57;;;;;;;25.90;13.05;;;;;;;;;;5074236;28;20028;-79
2024/02/11 11:36:27;;;;;;;32.22;15.50;;;;;;;;;;5076788;28;20024;-81
2024/02/11 11:38:53;;;;;;;32.63;15.82;;;;;;;;;;5078025;28;20396;-87
2024/02/11 11:41:19;;;;;;;26.38;13.95;;;;;;;;;;5080491;28;20060;-87
2024/02/11 11:43:46;;;;;;;13.77;7.75;;;;;;;;;;5076860;28;20526;-86
2024/02/11 11:46:15;;;;;;;17.67;7.97;;;;;;;;;;5076162;28;20078;-84
2024/02/11 11:48:41;;;;;;;26.30;7.68;;;;;;;;;;5076307;28;20036;-86
2024/02/11 11:51:07;;;;;;;19.80;8.63;;;;;;;;;;5075421;28;20035;-84
2024/02/11 11:53:34;;;;;;;15.43;6.50;;;;;;;;;;5076300;28;20476;-83
2024/02/11 11:56:00;;;;;;;20.60;9.20;;;;;;;;;;5076649;28;20028;-84
2024/02/11 11:58:31;;;;;;;20.88;9.75;;;;;;;;;;5076372;28;20021;-84
2024/02/11 12:01:01;;;;;;;26.40;11.60;;;;;;;;;;5075918;28;20028;-84
2024/02/11 12:03:28;;;;;;;27.27;12.50;;;;;;;;;;5076124;28;20027;-85
2024/02/11 12:05:55;;;;;;;27.90;10.35;;;;;;;;;;5075942;28;20078;-85
2024/02/11 12:08:22;;;;;;;31.15;13.35;;;;;;;;;;5075978;28;20079;-85
2024/02/11 12:10:55;;;;;;;23.98;10.65;;;;;;;;;;5076448;28;20025;-85
2024/02/11 12:13:22;;;;;;;30.75;12.88;;;;;;;;;;5075348;28;20024;-84
2024/02/11 12:15:48;;;;;;;28.73;13.40;;;;;;;;;;5075264;28;20101;-84
2024/02/11 12:18:19;;;;;;;26.15;10.93;;;;;;;;;;5076334;28;20395;-84
2024/02/11 12:20:45;;;;;;;28.95;10.98;;;;;;;;;;5077692;28;20056;-84
2024/02/11 12:23:12;;;;;;;23.70;11.25;;;;;;;;;;5078535;28;20044;-86
2024/02/11 12:25:41;;;;;;;30.05;13.00;;;;;;;;;;5077512;28;20518;-86
2024/02/11 12:28:07;;;;;;;24.85;11.65;;;;;;;;;;5077705;28;20108;-86
2024/02/11 12:30:33;;;;;;;29.17;13.35;;;;;;;;;;5077854;28;20032;-86
2024/02/11 12:32:59;;;;;;;30.52;13.27;;;;;;;;;;5077186;28;20162;-86
2024/02/11 12:35:29;;;;;;;31.00;13.00;;;;;;;;;;5077422;28;20029;-86
2024/02/11 12:37:56;;;;;;;28.33;13.13;;;;;;;;;;5079907;28;20050;-87
2024/02/11 12:40:23;;;;;;;30.27;12.52;;;;;;;;;;5079721;28;20017;-87
2024/02/11 12:43:03;;;;;;;30.02;11.38;;;;;;;;;;5079737;28;20040;-86
2024/02/11 12:45:29;;;;;;;27.58;13.02;;;;;;;;;;5077810;28;20029;-86
2024/02/11 12:47:55;;;;;;;34.83;13.40;;;;;;;;;;5080189;28;20115;-85
2024/02/11 12:50:24;;;;;;;24.45;12.25;;;;;;;;;;5078788;28;20048;-85
2024/02/11 12:52:52;;;;;;;25.20;11.73;;;;;;;;;;5080882;28;20052;-87
2024/02/11 12:55:19;;;;;;;38.67;14.52;;;;;;;;;;5079131;28;20383;-86
2024/02/11 12:57:46;;;;;;;26.27;12.70;;;;;;;;;;5079103;28;20056;-86
2024/02/11 13:00:16;;;;;;;29.33;12.45;;;;;;;;;;5078696;28;20513;-85
2024/02/11 13:02:42;;;;;;;34.80;14.75;;;;;;;;;;5083386;28;20035;-86
2024/02/11 13:05:13;;;;;;;29.83;12.13;;;;;;;;;;5082680;28;20035;-86
2024/02/11 13:07:40;;;;;;;28.13;12.52;;;;;;;;;;5083077;28;20073;-86
2024/02/11 13:10:09;;;;;;;33.20;13.43;;;;;;;;;;5082926;28;20090;-86
2024/02/11 13:12:38;;;;;;;25.20;12.82;;;;;;;;;;5083978;28;20054;-87
2024/02/11 13:15:13;;;;;;;29.30;13.43;;;;;;;;;;5083599;28;20113;-86
2024/02/11 13:17:43;;;;;;;27.50;12.93;;;;;;;;;;5083157;28;20024;-85
2024/02/11 13:20:10;;;;;;;32.60;12.93;;;;;;;;;;5083304;28;20021;-86
2024/02/11 13:22:36;;;;;;;24.67;13.50;;;;;;;;;;5083724;28;20555;-85
2024/02/11 13:25:06;;;;;;;33.83;13.93;;;;;;;;;;5082831;28;20473;-83
2024/02/11 13:27:32;;;;;;;26.00;11.87;;;;;;;;;;5081643;28;20073;-86
2024/02/11 13:29:59;;;;;;;24.30;12.15;;;;;;;;;;5082251;28;20021;-85
2024/02/11 13:32:25;;;;;;;31.33;12.65;;;;;;;;;;5083021;28;20025;-85
2024/02/11 13:34:52;;;;;;;20.90;11.43;;;;;;;;;;5084420;28;20028;-84
2024/02/11 13:37:19;;;;;;;27.05;11.57;;;;;;;;;;5082734;28;20029;-84
2024/02/11 13:39:46;;;;;;;31.63;12.55;;;;;;;;;;5083870;28;20028;-86
2024/02/11 13:42:12;;;;;;;30.20;12.85;;;;;;;;;;5084983;28;20036;-85
2024/02/11 13:44:38;;;;;;;31.25;12.68;;;;;;;;;;5088464;28;20004;-84
2024/02/11 13:47:06;;;;;;;25.52;11.95;;;;;;;;;;5096503;28;20055;-84
2024/02/11 13:49:33;;;;;;;26.05;13.05;;;;;;;;;;5095996;28;20012;-83
2024/02/11 13:51:59;;;;;;;27.73;12.02;;;;;;;;;;5087571;28;20055;-84
2024/02/11 13:54:25;;;;;;;33.75;13.65;;;;;;;;;;5081712;28;20102;-85
2024/02/11 13:56:51;;;;;;;28.70;12.07;;;;;;;;;;5079795;28;20021;-86
2024/02/11 13:59:17;;;;;;;24.65;13.07;;;;;;;;;;5076946;28;20124;-86
2024/02/11 14:01:47;;;;;;;26.77;12.65;;;;;;;;;;5076561;28;20063;-85
2024/02/11 14:04:13;;;;;;;24.33;12.30;;;;;;;;;;5078550;28;20490;-85
2024/02/11 14:06:42;;;;;;;28.42;11.30;;;;;;;;;;5077455;28;20025;-85
2024/02/11 14:09:08;;;;;;;26.77;12.00;;;;;;;;;;5076614;28;20052;-84
2024/02/11 14:11:34;;;;;;;30.45;13.25;;;;;;;;;;5075619;28;20024;-84
2024/02/11 14:14:00;;;;;;;31.23;12.95;;;;;;;;;;5075682;28;20047;-85
2024/02/11 14:16:26;;;;;;;28.17;12.65;;;;;;;;;;5074259;28;20024;-84
2024/02/11 14:18:54;;;;;;;33.42;12.68;;;;;;;;;;5074113;28;20024;-85